Portada
METAR-TAF:

METAR-TAF

Aeroports :

Damasc, Síria

latitud: 33-25N, longitud: 036-31E, altitud: 608 m

Observació

L'informe es va fer fa 1 hora i 9 minuts, a les 19:00 UTC
Vent 16 kt del Sud/Sud-Oest
Temperatura 22°C
Humitat 69%
Pressió 1012 hPa
Visibilitat 10 km o més
sense núvols per sota de 1500 mi sense presència de cumulonimbus.

METAR: OSDI 251900Z 21016KT CAVOK 22/16 Q1012

Hora: 23:09 (20:09 UTC)

Pronòstic

L'informe es va fer fa 4 hores i 9 minuts, a les 16:00 UTC
Pronòstic vàlid del 25 a les 18 UTC al 26 a les 24 UTC
Vent 10 kt del Sud-Oest
Visibilitat 10 km o més
sense núvols per sota de 1500 mi sense presència de cumulonimbus.
Temporalment
l' 26 a les 09 UTC al 26 a les 18 UTC
Vent 10 kt del Oest amb ràfegues de 20 kt
Visibilitat 10 km o més
Escasses núvols a una alçada de 3000 ft

TAF: OSDI 251600Z 2518/2624 22010KT CAVOK TEMPO 2609/2618 28010G20KT 9999 FEW030

Observacions i pronòstics meteorològics de més de 4000 aeroports (METAR i TAF).

Les estacions disponibles són els punts grocs i vermells al mapa.

Posi el ratolí al punt desitjat per veure el nom de l'estació.

Feu clic per veure les observacions i els pronòstics meteorològics.

Per canviar el mapa: feu clic els botons verds amb una creu de color negre per apropar; al botó verd amb un guió per allunyar la imatge; o en les fletxes verdes per a mapes adjacents.


METAR-TAF: